Aviation Digital Data Service (ADDS)

Output produced by METARs form (1934 UTC 25 March 2017)
found at http://www.aviationweather.gov/adds/metars/
 
ELLX 251920Z 05016KT CAVOK 11/M01 Q1020 NOSIG
TAF ELLX 251700Z 2518/2624 06012KT CAVOK 
     TEMPO 2518/2520 06015G25KT